Azure — ZCEE2 — position and weather

sailwx.info

Track history (hours):
 
Tides and Currents Weather Stations Pressure Air Temp Water Temp Dewpoint Dewpoint Depression Visibility Wind Speed Wind Dir Waves Ship Positions

Azure

Last reported at 2014-Oct-20 23:33 UTC. Time now 2014-Oct-21 00:46 UTC.
Position N 35°59' W 006°16'.

Length 289 m; draft 8.6 m.

Type: Ship. MMSI: 310610000.

Date/timePositionNaut miles runAvg speedWind from/ knotsBaromVisibWave heightAir tempDewpointWater temp
2014-Oct-20 23:33N 35°59' W 006°16'1413.9
2014-Oct-20 22:34N 35°58' W 005°58'1715.6
2014-Oct-20 21:27N 35°58' W 005°37'1213.4
2014-Oct-20 20:33N 36°03' W 005°23'11 0.5
2014-Oct-19 22:09N 36°01' W 005°10'610.6
2014-Oct-19 21:34N 36°01' W 005°17'9 0.8
2014-Oct-19 10:33N 36°08' W 005°22'1313.3
2014-Oct-19 09:34N 35°57' W 005°31'3818.4
2014-Oct-19 07:31N 35°53' W 006°17'2519.4
2014-Oct-19 06:14N 36°01' W 006°47'2 6.2
2014-Oct-19 06:00N 36°00' W 006°48'1327.9 100 / 231013.410.8 3.521.518.322.0
2014-Oct-19 05:32N 36°05' W 007°02'1919.0
2014-Oct-19 04:33N 36°08' W 007°25'1919.1
2014-Oct-19 03:33N 36°14' W 007°47'2019.2
2014-Oct-19 02:32N 36°19' W 008°11'1919.1
2014-Oct-19 01:33N 36°24' W 008°34'1919.4
2014-Oct-19 00:34N 36°30' W 008°56'1919.0
2014-Oct-18 23:34N 36°36' W 009°19'1919.2
2014-Oct-18 22:33N 36°51' W 009°34'2118.4
2014-Oct-18 21:25N 37°12' W 009°35'1718.8
2014-Oct-18 20:29N 37°29' W 009°35'1718.1
2014-Oct-18 19:34N 37°46' W 009°30'1918.6
2014-Oct-18 18:33N 38°04' W 009°28'1918.8
2014-Oct-18 17:31N 38°24' W 009°26'1717.9
2014-Oct-18 16:33N 38°40' W 009°19'9 8.6
2014-Oct-18 15:31N 38°43' W 009°08'0 0.0
2014-Oct-18 14:33N 38°42' W 009°08'0 0.0
2014-Oct-18 13:33N 38°42' W 009°08'0 0.0
2014-Oct-18 12:32N 38°42' W 009°08'0 0.0
2014-Oct-18 11:32N 38°42' W 009°08'0 0.0
2014-Oct-18 10:31N 38°43' W 009°08'0 0.0
2014-Oct-18 09:33N 38°43' W 009°08'0 0.0
2014-Oct-18 08:30N 38°43' W 009°08'0 0.0
2014-Oct-18 07:33N 38°43' W 009°08'0 0.0
2014-Oct-18 06:33N 38°42' W 009°08'6 6.0
2014-Oct-18 05:29N 38°41' W 009°16'29 8.7
2014-Oct-18 02:11N 38°59' W 009°44'10913.3
2014-Oct-17 18:00N 40°48' W 009°54'17413.4 180 / 241010.8 5.4 2.020.018.419.0
2014-Oct-17 05:00N 43°42' W 009°42'16715.2 180 / 311002.510.8 2.018.516.9
2014-Oct-16 18:00N 46°06' W 007°42'21515.3 220 / 281003.210.8 2.518.015.518.0
2014-Oct-16 04:00N 49°00' W 004°36'7617.1 220 / 21999.810.8 15.513.7
2014-Oct-15 23:34N 49°51' W 003°09'1615.6
2014-Oct-15 22:34N 49°59' W 002°49'1916.6
2014-Oct-15 21:26N 50°05' W 002°21'1517.3
2014-Oct-15 20:33N 50°12' W 002°01'2718.4
2014-Oct-15 19:05N 50°25' W 001°24'1019.5
2014-Oct-15 18:33N 50°30' W 001°10'1413.9
2014-Oct-15 17:34N 50°43' W 000°60'1212.4
2014-Oct-15 16:34N 50°48' W 001°18'7 6.5
2014-Oct-15 15:33N 50°54' W 001°24'0 0.0
2014-Oct-15 14:32N 50°54' W 001°24'0 0.0
2014-Oct-15 13:32N 50°54' W 001°24'0 0.0
2014-Oct-15 12:31N 50°54' W 001°24'0 0.0
2014-Oct-15 11:31N 50°54' W 001°24'0 0.0
2014-Oct-15 10:33N 50°54' W 001°24'0 0.0
2014-Oct-15 09:33N 50°54' W 001°24'0 0.0
2014-Oct-15 08:33N 50°54' W 001°24'0 0.0
2014-Oct-15 07:32N 50°54' W 001°24'0 0.0
2014-Oct-15 06:32N 50°54' W 001°24'0 0.0
2014-Oct-15 05:33N 50°54' W 001°24'6 5.7
2014-Oct-15 04:33N 50°49' W 001°18'1313.4
2014-Oct-15 03:34N 50°43' W 000°60'1110.7
2014-Oct-15 02:33N 50°35' W 000°47'1515.3
2014-Oct-15 01:33N 50°34' W 000°23'1515.1
2014-Oct-15 00:33N 50°32' E 000°00'1514.8
2014-Oct-14 23:33N 50°36' E 000°22'1615.6
2014-Oct-14 22:33N 50°42' E 000°45'2217.3
2014-Oct-14 21:17N 50°56' E 001°13'1317.6
2014-Oct-14 20:33N 51°04' E 001°28'1616.2
2014-Oct-14 19:33N 51°15' E 001°48'1313.0
2014-Oct-14 18:33N 51°25' E 002°01'1614.7
2014-Oct-14 17:26N 51°22' E 002°27'1112.2
2014-Oct-14 16:33N 51°22' E 002°45'1414.4
2014-Oct-14 15:32N 51°24' E 003°08'5 4.3
2014-Oct-14 14:29N 51°20' E 003°13'0 0.0
2014-Oct-14 12:22N 51°20' E 003°13'0 0.0
2014-Oct-14 11:34N 51°20' E 003°13'0 0.0
2014-Oct-14 10:21N 51°20' E 003°13'0 0.0
2014-Oct-14 09:33N 51°20' E 003°13'0 0.0
2014-Oct-14 08:32N 51°20' E 003°13'0 0.0
2014-Oct-14 07:33N 51°20' E 003°13'0 0.0
2014-Oct-14 06:28N 51°20' E 003°13'0 0.0
2014-Oct-14 05:33N 51°20' E 003°13'8 7.8
2014-Oct-14 04:33N 51°24' E 003°02'1414.3
2014-Oct-14 03:32N 51°22' E 002°39'1615.8
2014-Oct-14 02:33N 51°17' E 002°15'2019.6
2014-Oct-14 01:33N 51°07' E 001°48'1919.1
2014-Oct-14 00:33N 50°53' E 001°28'1817.5
2014-Oct-13 23:33N 50°37' E 001°16'1717.3
2014-Oct-13 22:33N 50°30' E 000°51'1817.7
2014-Oct-13 21:33N 50°26' E 000°24'3716.1
2014-Oct-13 19:14N 50°31' W 000°34'1116.3
2014-Oct-13 18:33N 50°36' W 000°50'1514.7
2014-Oct-13 17:33N 50°45' W 001°08'1110.7
2014-Oct-13 16:33N 50°52' W 001°21'3 2.5
2014-Oct-13 15:31N 50°54' W 001°24'0 0.0
2014-Oct-13 14:33N 50°54' W 001°24'0 0.0
2014-Oct-13 13:33N 50°54' W 001°24'0 0.0
2014-Oct-13 12:33N 50°54' W 001°24'0 0.0
2014-Oct-13 11:32N 50°54' W 001°24'0 0.0
2014-Oct-13 10:32N 50°54' W 001°24'0 0.0
2014-Oct-13 09:31N 50°54' W 001°24'0 0.0
2014-Oct-13 08:31N 50°54' W 001°24'0 0.0
2014-Oct-13 07:33N 50°54' W 001°24'0 0.0
2014-Oct-13 06:33N 50°54' W 001°24'0 0.1
2014-Oct-13 05:33N 50°54' W 001°24'7 6.7
2014-Oct-13 04:33N 50°48' W 001°18'1414.2
2014-Oct-13 03:33N 50°42' W 000°58'10 9.6
2014-Oct-13 02:34N 50°33' W 001°05'1717.0
2014-Oct-13 01:33N 50°24' W 001°28'37719.3
2014-Oct-12 06:00N 45°42' W 007°42'28517.8 040 / 301002.810.8 1.517.011.518.0
2014-Oct-11 14:00N 41°12' W 009°48'17417.8 150 / 251006.410.8 1.519.515.321.1
2014-Oct-11 04:14N 38°18' W 009°42'1319.2
2014-Oct-11 03:33N 38°05' W 009°39'1919.0
2014-Oct-11 02:33N 37°47' W 009°34'1919.0
2014-Oct-11 01:33N 37°28' W 009°28'1818.4
2014-Oct-11 00:33N 37°10' W 009°23'  
Track history (hours):
 
Tides and Currents Weather Stations Pressure Air Temp Water Temp Dewpoint Dewpoint Depression Visibility Wind Speed Wind Dir Waves Ship Positions

Azure

Last reported at 2014-Oct-20 23:33 UTC. Time now 2014-Oct-21 00:46 UTC.
Position N 35°59' W 006°16'.

Length 289 m; draft 8.6 m.

Type: Ship. MMSI: 310610000.

Date/timePositionNaut miles runAvg speedWind from/ knotsBaromVisibWave heightAir tempDewpointWater temp
2014-Oct-20 23:33N 35°59' W 006°16'1413.9
2014-Oct-20 22:34N 35°58' W 005°58'1715.6
2014-Oct-20 21:27N 35°58' W 005°37'1213.4
2014-Oct-20 20:33N 36°03' W 005°23'11 0.5
2014-Oct-19 22:09N 36°01' W 005°10'610.6
2014-Oct-19 21:34N 36°01' W 005°17'9 0.8
2014-Oct-19 10:33N 36°08' W 005°22'1313.3
2014-Oct-19 09:34N 35°57' W 005°31'3818.4
2014-Oct-19 07:31N 35°53' W 006°17'2519.4
2014-Oct-19 06:14N 36°01' W 006°47'2 6.2
2014-Oct-19 06:00N 36°00' W 006°48'1327.9 100 / 231013.410.8 3.521.518.322.0
2014-Oct-19 05:32N 36°05' W 007°02'1919.0
2014-Oct-19 04:33N 36°08' W 007°25'1919.1
2014-Oct-19 03:33N 36°14' W 007°47'2019.2
2014-Oct-19 02:32N 36°19' W 008°11'1919.1
2014-Oct-19 01:33N 36°24' W 008°34'1919.4
2014-Oct-19 00:34N 36°30' W 008°56'1919.0
2014-Oct-18 23:34N 36°36' W 009°19'1919.2
2014-Oct-18 22:33N 36°51' W 009°34'2118.4
2014-Oct-18 21:25N 37°12' W 009°35'1718.8
2014-Oct-18 20:29N 37°29' W 009°35'1718.1
2014-Oct-18 19:34N 37°46' W 009°30'1918.6
2014-Oct-18 18:33N 38°04' W 009°28'1918.8
2014-Oct-18 17:31N 38°24' W 009°26'1717.9
2014-Oct-18 16:33N 38°40' W 009°19'9 8.6
2014-Oct-18 15:31N 38°43' W 009°08'0 0.0
2014-Oct-18 14:33N 38°42' W 009°08'0 0.0
2014-Oct-18 13:33N 38°42' W 009°08'0 0.0
2014-Oct-18 12:32N 38°42' W 009°08'0 0.0
2014-Oct-18 11:32N 38°42' W 009°08'0 0.0
2014-Oct-18 10:31N 38°43' W 009°08'0 0.0
2014-Oct-18 09:33N 38°43' W 009°08'0 0.0
2014-Oct-18 08:30N 38°43' W 009°08'0 0.0
2014-Oct-18 07:33N 38°43' W 009°08'0 0.0
2014-Oct-18 06:33N 38°42' W 009°08'6 6.0
2014-Oct-18 05:29N 38°41' W 009°16'29 8.7
2014-Oct-18 02:11N 38°59' W 009°44'10913.3
2014-Oct-17 18:00N 40°48' W 009°54'17413.4 180 / 241010.8 5.4 2.020.018.419.0
2014-Oct-17 05:00N 43°42' W 009°42'16715.2 180 / 311002.510.8 2.018.516.9
2014-Oct-16 18:00N 46°06' W 007°42'21515.3 220 / 281003.210.8 2.518.015.518.0
2014-Oct-16 04:00N 49°00' W 004°36'7617.1 220 / 21999.810.8 15.513.7
2014-Oct-15 23:34N 49°51' W 003°09'1615.6
2014-Oct-15 22:34N 49°59' W 002°49'1916.6
2014-Oct-15 21:26N 50°05' W 002°21'1517.3
2014-Oct-15 20:33N 50°12' W 002°01'2718.4
2014-Oct-15 19:05N 50°25' W 001°24'1019.5
2014-Oct-15 18:33N 50°30' W 001°10'1413.9
2014-Oct-15 17:34N 50°43' W 000°60'1212.4
2014-Oct-15 16:34N 50°48' W 001°18'7 6.5
2014-Oct-15 15:33N 50°54' W 001°24'0 0.0
2014-Oct-15 14:32N 50°54' W 001°24'0 0.0
2014-Oct-15 13:32N 50°54' W 001°24'0 0.0
2014-Oct-15 12:31N 50°54' W 001°24'0 0.0
2014-Oct-15 11:31N 50°54' W 001°24'0 0.0
2014-Oct-15 10:33N 50°54' W 001°24'0 0.0
2014-Oct-15 09:33N 50°54' W 001°24'0 0.0
2014-Oct-15 08:33N 50°54' W 001°24'0 0.0
2014-Oct-15 07:32N 50°54' W 001°24'0 0.0
2014-Oct-15 06:32N 50°54' W 001°24'0 0.0
2014-Oct-15 05:33N 50°54' W 001°24'6 5.7
2014-Oct-15 04:33N 50°49' W 001°18'1313.4
2014-Oct-15 03:34N 50°43' W 000°60'1110.7
2014-Oct-15 02:33N 50°35' W 000°47'1515.3
2014-Oct-15 01:33N 50°34' W 000°23'1515.1
2014-Oct-15 00:33N 50°32' E 000°00'1514.8
2014-Oct-14 23:33N 50°36' E 000°22'1615.6
2014-Oct-14 22:33N 50°42' E 000°45'2217.3
2014-Oct-14 21:17N 50°56' E 001°13'1317.6
2014-Oct-14 20:33N 51°04' E 001°28'1616.2
2014-Oct-14 19:33N 51°15' E 001°48'1313.0
2014-Oct-14 18:33N 51°25' E 002°01'1614.7
2014-Oct-14 17:26N 51°22' E 002°27'1112.2
2014-Oct-14 16:33N 51°22' E 002°45'1414.4
2014-Oct-14 15:32N 51°24' E 003°08'5 4.3
2014-Oct-14 14:29N 51°20' E 003°13'0 0.0
2014-Oct-14 12:22N 51°20' E 003°13'0 0.0
2014-Oct-14 11:34N 51°20' E 003°13'0 0.0
2014-Oct-14 10:21N 51°20' E 003°13'0 0.0
2014-Oct-14 09:33N 51°20' E 003°13'0 0.0
2014-Oct-14 08:32N 51°20' E 003°13'0 0.0
2014-Oct-14 07:33N 51°20' E 003°13'0 0.0
2014-Oct-14 06:28N 51°20' E 003°13'0 0.0
2014-Oct-14 05:33N 51°20' E 003°13'8 7.8
2014-Oct-14 04:33N 51°24' E 003°02'1414.3
2014-Oct-14 03:32N 51°22' E 002°39'1615.8
2014-Oct-14 02:33N 51°17' E 002°15'2019.6
2014-Oct-14 01:33N 51°07' E 001°48'1919.1
2014-Oct-14 00:33N 50°53' E 001°28'1817.5
2014-Oct-13 23:33N 50°37' E 001°16'1717.3
2014-Oct-13 22:33N 50°30' E 000°51'1817.7
2014-Oct-13 21:33N 50°26' E 000°24'3716.1
2014-Oct-13 19:14N 50°31' W 000°34'1116.3
2014-Oct-13 18:33N 50°36' W 000°50'1514.7
2014-Oct-13 17:33N 50°45' W 001°08'1110.7
2014-Oct-13 16:33N 50°52' W 001°21'3 2.5
2014-Oct-13 15:31N 50°54' W 001°24'0 0.0
2014-Oct-13 14:33N 50°54' W 001°24'0 0.0
2014-Oct-13 13:33N 50°54' W 001°24'0 0.0
2014-Oct-13 12:33N 50°54' W 001°24'0 0.0
2014-Oct-13 11:32N 50°54' W 001°24'0 0.0
2014-Oct-13 10:32N 50°54' W 001°24'0 0.0
2014-Oct-13 09:31N 50°54' W 001°24'0 0.0
2014-Oct-13 08:31N 50°54' W 001°24'0 0.0
2014-Oct-13 07:33N 50°54' W 001°24'0 0.0
2014-Oct-13 06:33N 50°54' W 001°24'0 0.1
2014-Oct-13 05:33N 50°54' W 001°24'7 6.7
2014-Oct-13 04:33N 50°48' W 001°18'1414.2
2014-Oct-13 03:33N 50°42' W 000°58'10 9.6
2014-Oct-13 02:34N 50°33' W 001°05'1717.0
2014-Oct-13 01:33N 50°24' W 001°28'37719.3
2014-Oct-12 06:00N 45°42' W 007°42'28517.8 040 / 301002.810.8 1.517.011.518.0
2014-Oct-11 14:00N 41°12' W 009°48'17417.8 150 / 251006.410.8 1.519.515.321.1
2014-Oct-11 04:14N 38°18' W 009°42'1319.2
2014-Oct-11 03:33N 38°05' W 009°39'1919.0
2014-Oct-11 02:33N 37°47' W 009°34'1919.0
2014-Oct-11 01:33N 37°28' W 009°28'1818.4
2014-Oct-11 00:33N 37°10' W 009°23'  

Dump ship's entire track history